首页
METAR-TAF:

METAR-TAF

机场 :

Griffiss_Air_Force_Base

羅馬, 紐約州, 美国

纬度: 43-14N, 经度: 075-24W, 海拔: 154米

当前天气观测

该预报发布于21分钟前的23:53 UTC
风速5节,风向
温度 24°C
湿度 57%
气压 1009 hPa
能見度: 16.1公里
天空无云

METAR: KRME 242353Z 10005KT 10SM CLR 24/15 A2979 RMK AO2 SLP085 T02440150 10272 20244 55010

时间: 20:14 (00:14 UTC)

预报

该预报发布于32分钟前的23:42 UTC
预报有效从25日的 00点(UTC)到 25日的 24点(UTC)
风速5节,风向东转东南
能見度: 10公里
多云层高于15000英尺
从 25日的 0900点(UTC)
风速7节,风向东转东南
能見度: 10公里
阴天层高于2500英尺
小阵雨
短暂存在
从 25日的 10点(UTC)到 25日的 13点(UTC)
能見度: 8.0公里
阴天层高于1500英尺
阵雨, 轻雾
从 25日的 1500点(UTC)
风速7节,风向西转西南
能見度: 10公里
多云层高于2500英尺
从 25日的 1800点(UTC)
风速10节,风向西
能見度: 10公里
多云层高于4000英尺

TAF: KRME 242342Z 2500/2524 12005KT P6SM BKN150 FM250900 11007KT P6SM -SHRA OVC025 TEMPO 2510/2513 5SM SHRA BR OVC015 FM251500 24007KT P6SM BKN025 FM251800 28010KT P6SM BKN040

超过4000个机场的气象观测和天气预报(METAR&TAF报告)。

可查询的气象台以黄色和红色小点在地图上表示。

将鼠标移到小点上方,可查看气象台名称。

然后点击查看天气观测和预报。

如需切换地图:点击带黑十字的绿色按钮放大地图;点击带横线的绿色按钮缩小地图;或者点击绿色箭头查看邻近地区的地图。


METAR-TAF: